Time;durP1;ratioP1;P1;durP2;ratioP2;P2;SDS_P1;SDS_P2;PMS_P1;PMS_P2;Temp;Humidity;BMP_temperature;BMP_pressure;BME280_temperature;BME280_humidity;BME280_pressure;Samples;Min_cycle;Max_cycle;Signal;HPM_P1;HPM_P2
2023/09/14 00:00:55;;;;;;;18.55;9.15;;;17.00;99.90;;;;;;5087345;28;20094;-69
2023/09/14 00:03:21;;;;;;;16.98;8.80;;;17.10;99.90;;;;;;5088140;28;20028;-69
2023/09/14 00:05:49;;;;;;;15.15;9.10;;;17.00;99.90;;;;;;5087420;28;20036;-69
2023/09/14 00:08:15;;;;;;;15.32;9.13;;;16.90;99.90;;;;;;5089635;28;20032;-69
2023/09/14 00:10:41;;;;;;;16.55;8.63;;;16.90;99.90;;;;;;5087897;28;20034;-69
2023/09/14 00:13:08;;;;;;;13.57;7.28;;;16.80;99.90;;;;;;5089181;28;20715;-68
2023/09/14 00:15:35;;;;;;;16.52;7.93;;;16.80;99.90;;;;;;5087442;28;20024;-68
2023/09/14 00:18:00;;;;;;;13.48;7.57;;;16.90;99.90;;;;;;5089490;28;20032;-68
2023/09/14 00:20:30;;;;;;;14.60;7.80;;;16.80;99.90;;;;;;5087442;28;20384;-68
2023/09/14 00:22:56;;;;;;;14.15;7.68;;;16.70;99.90;;;;;;5088859;28;20039;-69
2023/09/14 00:25:23;;;;;;;13.05;7.70;;;16.80;99.90;;;;;;5085962;28;20032;-69
2023/09/14 00:27:50;;;;;;;15.40;8.38;;;16.80;99.90;;;;;;5087977;28;20499;-69
2023/09/14 00:30:16;;;;;;;13.68;8.02;;;16.90;99.90;;;;;;5087276;28;20032;-69
2023/09/14 00:32:42;;;;;;;15.63;8.35;;;16.90;99.90;;;;;;5087834;28;20024;-69
2023/09/14 00:35:11;;;;;;;14.57;8.82;;;17.00;99.90;;;;;;5086876;28;20122;-69
2023/09/14 00:37:37;;;;;;;18.23;9.38;;;17.00;99.90;;;;;;5087761;28;20464;-69
2023/09/14 00:40:07;;;;;;;18.48;8.50;;;17.00;99.90;;;;;;5085775;28;20074;-69
2023/09/14 00:42:42;;;;;;;13.13;7.75;;;17.00;99.90;;;;;;5087389;28;20027;-69
2023/09/14 00:45:10;;;;;;;13.43;8.40;;;17.00;99.90;;;;;;5086813;28;20043;-68
2023/09/14 00:47:37;;;;;;;13.77;7.82;;;17.00;99.90;;;;;;5088282;28;20055;-67
2023/09/14 00:50:05;;;;;;;14.50;8.40;;;17.00;99.90;;;;;;5086305;28;20135;-68
2023/09/14 00:52:33;;;;;;;14.68;8.38;;;17.00;99.90;;;;;;5087992;28;20028;-69
2023/09/14 00:54:59;;;;;;;18.05;8.90;;;16.90;99.90;;;;;;5087154;28;20028;-70
2023/09/14 00:57:25;;;;;;;13.75;8.18;;;16.90;99.90;;;;;;5088181;28;20031;-69
2023/09/14 00:59:51;;;;;;;16.35;9.43;;;16.80;99.90;;;;;;5087711;28;20016;-67
2023/09/14 01:02:17;;;;;;;16.40;8.77;;;16.90;99.90;;;;;;5086916;28;20081;-68
2023/09/14 01:04:43;;;;;;;15.43;8.82;;;16.90;99.90;;;;;;5086620;28;20062;-69
2023/09/14 01:07:09;;;;;;;15.95;9.13;;;16.90;99.90;;;;;;5089009;28;20036;-69
2023/09/14 01:09:35;;;;;;;17.95;10.07;;;16.90;99.90;;;;;;5084599;28;20130;-69
2023/09/14 01:12:03;;;;;;;14.75;8.27;;;17.00;99.90;;;;;;5087925;28;20476;-68
2023/09/14 01:14:39;;;;;;;16.83;8.52;;;16.90;99.90;;;;;;5087498;28;20533;-68
2023/09/14 01:17:22;;;;;;;13.88;7.45;;;16.80;99.90;;;;;;5087271;28;20070;-68
2023/09/14 01:20:01;;;;;;;16.08;8.52;;;16.80;99.90;;;;;;5087038;28;20036;-67
2023/09/14 01:22:52;;;;;;;12.98;7.88;;;16.80;99.90;;;;;;5087789;28;20362;-69
2023/09/14 01:25:25;;;;;;;14.13;8.57;;;16.80;99.90;;;;;;5084812;28;20170;-69
2023/09/14 01:27:51;;;;;;;13.50;8.60;;;16.80;99.90;;;;;;5068880;28;20047;-68
2023/09/14 01:30:17;;;;;;;13.80;8.70;;;16.80;99.90;;;;;;5088396;28;20025;-68
2023/09/14 01:32:42;;;;;;;15.73;8.82;;;16.90;99.90;;;;;;5086825;28;20050;-69
2023/09/14 01:35:08;;;;;;;20.38;9.65;;;16.90;99.90;;;;;;5086510;28;20123;-68
2023/09/14 01:37:34;;;;;;;16.80;9.77;;;16.90;99.90;;;;;;5088494;28;20055;-67
2023/09/14 01:40:00;;;;;;;17.88;9.95;;;16.90;99.90;;;;;;5086457;28;20040;-68
2023/09/14 01:42:27;;;;;;;17.65;10.23;;;17.00;99.90;;;;;;5083851;28;20024;-68
2023/09/14 01:44:53;;;;;;;18.45;10.48;;;17.00;99.90;;;;;;5086449;28;20139;-68
2023/09/14 01:47:19;;;;;;;17.48;9.70;;;17.00;99.90;;;;;;5086327;28;20528;-68
2023/09/14 01:49:44;;;;;;;17.02;9.93;;;17.10;99.90;;;;;;5085142;28;20112;-69
2023/09/14 01:52:10;;;;;;;16.63;10.02;;;17.10;99.90;;;;;;5087429;28;20115;-68
2023/09/14 01:54:36;;;;;;;17.50;9.82;;;17.10;99.90;;;;;;5085623;28;20028;-69
2023/09/14 01:57:02;;;;;;;19.42;10.80;;;17.00;99.90;;;;;;5087234;28;20085;-69
2023/09/14 01:59:28;;;;;;;17.20;10.30;;;17.00;99.90;;;;;;5084686;28;20078;-69
2023/09/14 02:01:53;;;;;;;16.55;10.13;;;17.00;99.90;;;;;;5087563;28;20028;-69
2023/09/14 02:04:19;;;;;;;21.13;10.77;;;17.00;99.90;;;;;;5088262;28;20037;-69
2023/09/14 02:06:44;;;;;;;19.30;10.15;;;17.00;99.90;;;;;;5086668;28;20048;-68
2023/09/14 02:09:10;;;;;;;17.52;9.82;;;16.90;99.90;;;;;;5086505;28;20028;-67
2023/09/14 02:11:36;;;;;;;21.25;10.55;;;16.90;99.90;;;;;;5086935;28;20115;-68
2023/09/14 02:14:01;;;;;;;18.10;10.85;;;16.90;99.90;;;;;;5085004;28;20717;-69
2023/09/14 02:16:27;;;;;;;20.00;11.55;;;16.90;99.90;;;;;;5086372;28;20757;-68
2023/09/14 02:18:53;;;;;;;19.98;11.18;;;16.80;99.90;;;;;;5086432;28;20082;-68
2023/09/14 02:21:19;;;;;;;19.63;11.02;;;16.80;99.90;;;;;;5086856;28;20034;-68
2023/09/14 02:23:44;;;;;;;21.50;11.93;;;16.90;99.90;;;;;;5083884;28;20028;-70
2023/09/14 02:26:10;;;;;;;22.33;12.65;;;16.90;99.90;;;;;;5085629;28;20135;-69
2023/09/14 02:28:36;;;;;;;20.65;11.90;;;16.80;99.90;;;;;;5088207;28;20032;-68
2023/09/14 02:31:07;;;;;;;21.90;12.05;;;16.80;99.90;;;;;;5087070;28;20020;-71
2023/09/14 02:33:33;;;;;;;21.67;11.43;;;16.90;99.90;;;;;;5087580;28;20039;-70
2023/09/14 02:35:59;;;;;;;17.73;11.07;;;16.80;99.90;;;;;;5085508;28;20036;-69
2023/09/14 02:38:25;;;;;;;20.02;11.50;;;16.90;99.90;;;;;;5087294;28;20032;-69
2023/09/14 02:40:51;;;;;;;22.20;12.30;;;16.90;99.90;;;;;;5087258;28;20047;-69
2023/09/14 02:43:16;;;;;;;23.33;11.60;;;16.90;99.90;;;;;;5085366;28;20047;-69
2023/09/14 02:45:42;;;;;;;21.73;11.60;;;16.90;99.90;;;;;;5067156;28;20051;-68
2023/09/14 02:48:07;;;;;;;23.08;12.25;;;16.80;99.90;;;;;;5076605;28;20056;-68
2023/09/14 02:50:33;;;;;;;20.52;11.85;;;16.80;99.90;;;;;;5086512;28;20031;-68
2023/09/14 02:52:59;;;;;;;23.23;12.20;;;16.70;99.90;;;;;;5086586;28;20032;-72
2023/09/14 02:55:24;;;;;;;20.20;11.48;;;16.70;99.90;;;;;;5071252;28;20032;-73
2023/09/14 02:57:50;;;;;;;23.05;12.50;;;16.70;99.90;;;;;;5090943;28;20020;-73
2023/09/14 03:00:17;;;;;;;23.83;12.90;;;16.70;99.90;;;;;;5088350;28;20066;-73
2023/09/14 03:02:46;;;;;;;25.10;12.98;;;16.60;99.90;;;;;;5088268;28;20080;-72
2023/09/14 03:05:12;;;;;;;23.90;13.02;;;16.70;99.90;;;;;;5090892;28;20039;-73
2023/09/14 03:07:38;;;;;;;23.45;12.50;;;16.80;99.90;;;;;;5091923;28;20377;-73
2023/09/14 03:10:05;;;;;;;22.63;12.43;;;16.80;99.90;;;;;;5088916;28;20150;-73
2023/09/14 03:12:30;;;;;;;25.00;13.90;;;16.80;99.90;;;;;;5091105;28;20035;-73
2023/09/14 03:14:56;;;;;;;23.27;12.63;;;16.80;99.90;;;;;;5089733;28;20396;-72
2023/09/14 03:17:21;;;;;;;33.47;13.25;;;16.90;99.90;;;;;;5091515;28;20056;-73
2023/09/14 03:19:48;;;;;;;23.52;12.95;;;16.90;99.90;;;;;;5088932;28;20040;-74
2023/09/14 03:22:14;;;;;;;21.30;12.18;;;16.90;99.90;;;;;;5090438;28;20039;-73
2023/09/14 03:24:40;;;;;;;21.38;12.15;;;16.90;99.90;;;;;;5091328;28;20103;-72
2023/09/14 03:27:05;;;;;;;24.77;12.60;;;17.00;99.90;;;;;;5090148;28;20119;-72
2023/09/14 03:29:31;;;;;;;22.83;12.70;;;16.90;99.90;;;;;;5089862;28;20028;-73
2023/09/14 03:31:57;;;;;;;23.05;13.75;;;16.90;99.90;;;;;;5086915;28;20135;-73
2023/09/14 03:34:22;;;;;;;23.33;13.38;;;16.90;99.90;;;;;;5088841;28;20110;-73
2023/09/14 03:36:48;;;;;;;23.52;12.68;;;16.90;99.90;;;;;;5089489;28;20019;-73
2023/09/14 03:39:15;;;;;;;27.13;13.10;;;16.90;99.90;;;;;;5090132;28;20034;-73
2023/09/14 03:41:40;;;;;;;22.10;11.73;;;16.90;99.90;;;;;;5070907;28;20475;-73
2023/09/14 03:44:06;;;;;;;20.67;11.10;;;17.00;99.90;;;;;;5089418;28;20039;-72
2023/09/14 03:46:32;;;;;;;19.85;10.52;;;16.90;99.90;;;;;;5090878;28;20040;-73
2023/09/14 03:48:57;;;;;;;21.35;10.05;;;16.90;99.90;;;;;;5088124;28;20386;-73
2023/09/14 03:51:23;;;;;;;24.38;11.35;;;17.00;99.90;;;;;;5089777;28;20035;-73
2023/09/14 03:53:48;;;;;;;18.95;10.80;;;17.00;99.90;;;;;;5089232;28;20526;-72
2023/09/14 03:56:14;;;;;;;20.70;11.10;;;17.00;99.90;;;;;;5089366;28;20032;-72
2023/09/14 03:58:42;;;;;;;19.80;11.20;;;16.90;99.90;;;;;;5088890;28;20468;-72
2023/09/14 04:01:08;;;;;;;21.95;11.98;;;16.90;99.90;;;;;;5087739;28;20028;-72
2023/09/14 04:03:34;;;;;;;24.60;11.30;;;16.90;99.90;;;;;;5087940;28;20026;-72
2023/09/14 04:05:59;;;;;;;19.50;11.27;;;16.90;99.90;;;;;;5082065;28;20082;-72
2023/09/14 04:08:26;;;;;;;20.70;11.15;;;17.00;99.90;;;;;;5089775;28;20081;-73
2023/09/14 04:10:51;;;;;;;23.65;12.43;;;17.00;99.90;;;;;;5088546;28;20060;-73
2023/09/14 04:13:32;;;;;;;22.88;11.48;;;17.00;99.90;;;;;;5089370;28;20063;-73
2023/09/14 04:15:59;;;;;;;18.48;10.38;;;17.00;99.90;;;;;;5088056;28;20444;-72
2023/09/14 04:18:25;;;;;;;19.60;10.40;;;17.00;99.90;;;;;;5090273;28;20067;-72
2023/09/14 04:20:51;;;;;;;16.75;10.40;;;17.00;99.90;;;;;;5088180;28;20066;-73
2023/09/14 04:23:17;;;;;;;28.92;11.40;;;17.00;99.90;;;;;;5088623;28;20060;-73
2023/09/14 04:25:46;;;;;;;19.10;10.98;;;16.90;99.90;;;;;;5087699;28;20506;-72
2023/09/14 04:28:13;;;;;;;19.45;10.75;;;16.90;99.90;;;;;;5087444;28;20039;-72
2023/09/14 04:30:58;;;;;;;20.60;10.90;;;16.90;99.90;;;;;;5086518;28;20031;-72
2023/09/14 04:33:24;;;;;;;21.67;11.02;;;16.90;99.90;;;;;;5087012;28;20038;-72
2023/09/14 04:35:58;;;;;;;19.10;11.00;;;16.90;99.90;;;;;;5088631;28;20047;-72
2023/09/14 04:38:24;;;;;;;20.60;10.88;;;16.80;99.90;;;;;;5089947;28;20039;-72
2023/09/14 04:40:49;;;;;;;20.60;11.35;;;16.80;99.90;;;;;;5085479;28;20036;-73
2023/09/14 04:43:15;;;;;;;23.02;11.38;;;16.80;99.90;;;;;;5082871;28;20028;-72
2023/09/14 04:45:41;;;;;;;21.88;10.80;;;16.80;99.90;;;;;;5087364;28;20048;-73
2023/09/14 04:48:07;;;;;;;18.83;10.73;;;16.80;99.90;;;;;;5081951;28;20056;-72
2023/09/14 04:50:33;;;;;;;21.25;10.65;;;16.80;99.90;;;;;;5078166;28;20035;-72
2023/09/14 04:52:59;;;;;;;17.98;10.70;;;16.80;99.90;;;;;;5087105;28;20064;-72
2023/09/14 04:55:25;;;;;;;20.08;11.10;;;16.80;99.90;;;;;;5085376;28;20741;-72
2023/09/14 04:57:51;;;;;;;21.40;11.10;;;16.80;99.90;;;;;;5086018;28;20073;-72
2023/09/14 05:00:17;;;;;;;20.98;10.93;;;16.80;99.90;;;;;;5087436;28;20070;-72
2023/09/14 05:02:43;;;;;;;20.77;11.57;;;16.70;99.90;;;;;;5084470;28;20065;-72
2023/09/14 05:05:09;;;;;;;19.50;11.48;;;16.70;99.90;;;;;;5087394;28;20097;-72
2023/09/14 05:07:35;;;;;;;17.58;9.93;;;16.70;99.90;;;;;;5084900;28;20122;-73
2023/09/14 05:10:02;;;;;;;17.58;10.73;;;16.70;99.90;;;;;;5087109;28;20139;-72
2023/09/14 05:12:28;;;;;;;18.20;10.80;;;16.60;99.90;;;;;;5085153;28;20047;-72
2023/09/14 05:14:53;;;;;;;19.08;10.60;;;16.60;99.90;;;;;;5086815;28;20020;-72
2023/09/14 05:17:19;;;;;;;20.33;10.80;;;16.40;99.90;;;;;;5087839;28;20040;-72
2023/09/14 05:19:45;;;;;;;19.80;10.80;;;16.40;99.90;;;;;;5087001;28;20044;-72
2023/09/14 05:22:11;;;;;;;17.98;10.73;;;16.30;99.90;;;;;;5073806;28;20025;-72
2023/09/14 05:24:40;;;;;;;22.67;11.60;;;16.30;99.90;;;;;;5087099;28;20479;-71
2023/09/14 05:27:06;;;;;;;18.58;10.52;;;16.20;99.90;;;;;;5076156;28;20032;-72
2023/09/14 05:29:31;;;;;;;21.58;10.55;;;16.30;99.90;;;;;;5086394;28;20024;-73
2023/09/14 05:31:57;;;;;;;21.58;11.18;;;16.30;99.90;;;;;;5082324;28;20098;-73
2023/09/14 05:34:23;;;;;;;16.30;9.10;;;16.30;99.90;;;;;;5081722;28;20024;-73
2023/09/14 05:36:49;;;;;;;20.40;9.43;;;16.40;99.90;;;;;;5079907;28;20051;-73
2023/09/14 05:39:15;;;;;;;21.58;10.65;;;16.40;99.90;;;;;;5086504;28;20085;-73
2023/09/14 05:41:41;;;;;;;17.85;10.25;;;16.40;99.90;;;;;;5083383;28;20032;-73
2023/09/14 05:44:10;;;;;;;18.77;9.23;;;16.40;99.90;;;;;;5084138;28;20058;-73
2023/09/14 05:46:39;;;;;;;21.27;11.13;;;16.50;99.90;;;;;;5080367;28;20052;-72
2023/09/14 05:49:05;;;;;;;20.37;10.47;;;16.50;99.90;;;;;;5085213;28;20465;-72
2023/09/14 05:51:31;;;;;;;19.67;9.90;;;16.60;99.90;;;;;;5086272;28;20289;-72
2023/09/14 05:53:57;;;;;;;18.40;9.68;;;16.60;99.90;;;;;;5082843;28;20020;-73
2023/09/14 05:56:23;;;;;;;20.20;10.45;;;16.70;99.90;;;;;;5083387;28;20070;-73
2023/09/14 05:58:48;;;;;;;18.23;10.38;;;16.70;99.90;;;;;;5086198;28;20040;-73
2023/09/14 06:01:14;;;;;;;22.80;10.63;;;16.60;99.90;;;;;;5079196;28;20055;-73
2023/09/14 06:03:40;;;;;;;22.20;10.55;;;16.50;99.90;;;;;;5085992;28;20440;-72
2023/09/14 06:06:06;;;;;;;17.63;9.80;;;16.40;99.90;;;;;;5082247;28;20040;-72
2023/09/14 06:08:32;;;;;;;20.20;10.52;;;16.40;99.90;;;;;;5086936;28;20526;-71
2023/09/14 06:10:59;;;;;;;23.83;12.10;;;16.40;99.90;;;;;;5084710;28;20118;-72
2023/09/14 06:13:24;;;;;;;17.77;10.32;;;16.40;99.90;;;;;;5084734;28;20028;-72
2023/09/14 06:15:50;;;;;;;19.13;10.77;;;16.50;99.90;;;;;;5087109;28;20098;-72
2023/09/14 06:18:16;;;;;;;25.15;12.00;;;16.70;99.90;;;;;;5087494;28;20036;-72
2023/09/14 06:20:42;;;;;;;24.38;12.70;;;16.80;99.90;;;;;;5087948;28;20082;-72
2023/09/14 06:23:08;;;;;;;20.42;11.48;;;16.80;99.90;;;;;;5087577;28;20028;-72
2023/09/14 06:25:33;;;;;;;19.63;10.63;;;16.70;99.90;;;;;;5088561;28;20058;-72
2023/09/14 06:27:59;;;;;;;20.25;10.73;;;16.80;99.90;;;;;;5091250;28;20044;-72
2023/09/14 06:30:25;;;;;;;19.73;10.77;;;16.70;99.90;;;;;;5092215;28;20031;-72
2023/09/14 06:32:51;;;;;;;18.45;10.45;;;16.80;99.90;;;;;;5092244;28;20028;-72
2023/09/14 06:35:17;;;;;;;21.85;12.15;;;16.80;99.90;;;;;;5084673;28;20024;-72
2023/09/14 06:37:43;;;;;;;20.23;10.73;;;16.90;99.90;;;;;;5071609;28;20086;-72
2023/09/14 06:40:09;;;;;;;21.50;11.48;;;16.90;99.90;;;;;;5070990;28;20248;-72
2023/09/14 06:42:36;;;;;;;19.48;11.15;;;17.00;99.90;;;;;;5089745;28;20028;-72
2023/09/14 06:45:02;;;;;;;19.48;11.23;;;16.90;99.90;;;;;;5089185;28;20081;-72
2023/09/14 06:47:27;;;;;;;19.25;10.98;;;17.00;99.90;;;;;;5090892;28;20618;-72
2023/09/14 06:49:53;;;;;;;21.95;11.45;;;17.00;99.90;;;;;;5090809;28;20036;-72
2023/09/14 06:52:18;;;;;;;19.13;11.43;;;17.00;99.90;;;;;;5090460;28;20028;-72
2023/09/14 06:54:45;;;;;;;20.83;10.90;;;16.90;99.90;;;;;;5089173;28;20043;-72
2023/09/14 06:57:11;;;;;;;19.50;10.88;;;17.00;99.90;;;;;;5088353;28;20066;-72
2023/09/14 06:59:36;;;;;;;20.67;11.82;;;17.10;99.90;;;;;;5074011;28;20468;-72
2023/09/14 07:02:02;;;;;;;21.38;11.55;;;17.20;99.90;;;;;;5090389;28;20487;-72
2023/09/14 07:04:29;;;;;;;20.13;10.80;;;17.30;99.90;;;;;;5090398;28;20040;-71
2023/09/14 07:06:55;;;;;;;23.00;12.60;;;17.30;99.90;;;;;;5091426;28;20028;-71
2023/09/14 07:09:20;;;;;;;23.63;11.20;;;17.40;99.90;;;;;;5089442;28;20214;-71
2023/09/14 07:11:46;;;;;;;21.67;12.35;;;17.60;99.90;;;;;;5091159;28;20031;-71
2023/09/14 07:14:12;;;;;;;21.40;11.68;;;17.60;99.90;;;;;;5089601;28;20056;-72
2023/09/14 07:16:37;;;;;;;20.73;12.20;;;17.60;99.90;;;;;;5089815;28;20028;-72
2023/09/14 07:19:03;;;;;;;24.02;12.60;;;17.70;99.90;;;;;;5090567;28;20087;-72
2023/09/14 07:21:32;;;;;;;21.58;12.27;;;17.60;99.90;;;;;;5090054;28;20032;-72
2023/09/14 07:23:59;;;;;;;18.40;10.70;;;17.60;99.90;;;;;;5090707;28;20028;-72
2023/09/14 07:26:25;;;;;;;21.98;11.18;;;17.70;99.90;;;;;;5089587;28;20414;-72
2023/09/14 07:28:51;;;;;;;19.25;11.00;;;17.90;99.90;;;;;;5090977;28;20043;-72
2023/09/14 07:31:16;;;;;;;20.73;11.23;;;18.00;99.90;;;;;;5090265;28;20032;-72
2023/09/14 07:33:45;;;;;;;22.25;11.70;;;18.10;99.90;;;;;;5091240;28;20075;-72
2023/09/14 07:36:10;;;;;;;21.13;11.70;;;18.10;99.90;;;;;;5088007;28;20086;-72
2023/09/14 07:38:37;;;;;;;20.77;11.13;;;18.10;99.90;;;;;;5091327;28;20475;-72
2023/09/14 07:41:03;;;;;;;20.98;11.25;;;18.20;99.90;;;;;;5089257;28;20035;-73
2023/09/14 07:43:28;;;;;;;22.13;11.68;;;18.30;99.90;;;;;;5090462;28;20031;-72
2023/09/14 07:45:56;;;;;;;21.05;11.55;;;18.40;99.90;;;;;;5089272;28;20361;-72
2023/09/14 07:48:21;;;;;;;22.40;12.10;;;18.50;99.90;;;;;;5088742;28;20043;-72
2023/09/14 07:50:47;;;;;;;20.67;11.38;;;18.40;99.90;;;;;;5090249;28;20696;-72
2023/09/14 07:53:13;;;;;;;20.70;11.32;;;18.40;99.90;;;;;;5089801;28;20039;-72
2023/09/14 07:55:39;;;;;;;25.50;12.35;;;18.30;99.90;;;;;;5089490;28;20555;-73
2023/09/14 07:58:08;;;;;;;18.08;11.40;;;18.20;99.90;;;;;;5088979;28;20032;-72
2023/09/14 08:00:35;;;;;;;19.00;12.00;;;18.20;99.90;;;;;;5088305;28;20024;-71
2023/09/14 08:03:01;;;;;;;22.75;11.68;;;18.30;99.90;;;;;;5090328;28;20023;-72
2023/09/14 08:05:28;;;;;;;20.58;11.32;;;18.30;99.90;;;;;;5089218;28;20060;-72
2023/09/14 08:07:53;;;;;;;20.45;11.45;;;18.40;99.90;;;;;;5090233;28;20024;-71
2023/09/14 08:10:19;;;;;;;18.63;11.18;;;18.40;99.90;;;;;;5088277;28;20038;-72
2023/09/14 08:12:45;;;;;;;20.60;11.23;;;18.50;99.90;;;;;;5076287;28;20059;-73
2023/09/14 08:15:12;;;;;;;20.08;11.43;;;18.50;99.90;;;;;;5069148;28;20052;-72
2023/09/14 08:17:37;;;;;;;18.10;10.88;;;18.50;99.90;;;;;;5075101;28;20804;-71
2023/09/14 08:20:03;;;;;;;20.75;11.50;;;18.50;99.90;;;;;;5089197;28;20086;-72
2023/09/14 08:22:30;;;;;;;21.95;11.65;;;18.50;99.90;;;;;;5089603;28;20059;-71
2023/09/14 08:25:00;;;;;;;19.83;10.77;;;18.60;99.90;;;;;;5089890;28;20031;-72
2023/09/14 08:27:26;;;;;;;19.83;11.60;;;18.70;99.90;;;;;;5070427;28;20952;-71
2023/09/14 08:29:52;;;;;;;20.55;10.60;;;18.70;99.90;;;;;;5071989;28;20059;-71
2023/09/14 08:32:17;;;;;;;17.48;10.00;;;18.70;99.90;;;;;;5089178;28;20467;-71
2023/09/14 08:34:43;;;;;;;18.42;10.23;;;18.80;99.90;;;;;;5089009;28;20024;-71
2023/09/14 08:37:10;;;;;;;16.88;9.43;;;18.90;99.90;;;;;;5087014;28;20034;-72
2023/09/14 08:39:37;;;;;;;17.35;9.10;;;19.00;99.90;;;;;;5089761;28;20111;-71
2023/09/14 08:42:03;;;;;;;17.30;9.35;;;19.00;99.90;;;;;;5089347;28;20028;-71
2023/09/14 08:44:33;;;;;;;18.27;9.90;;;19.00;99.90;;;;;;5088982;28;20082;-72
2023/09/14 08:47:01;;;;;;;15.98;9.88;;;19.00;99.90;;;;;;5088358;28;20113;-72
2023/09/14 08:49:28;;;;;;;15.60;8.23;;;19.10;99.90;;;;;;5087964;28;20102;-71
2023/09/14 08:51:57;;;;;;;16.83;9.02;;;19.10;99.90;;;;;;5088707;28;20056;-72
2023/09/14 08:54:23;;;;;;;15.52;9.20;;;19.20;99.90;;;;;;5088872;28;20035;-72
2023/09/14 08:56:50;;;;;;;15.60;9.02;;;19.20;99.90;;;;;;5088075;28;20469;-73
2023/09/14 08:59:19;;;;;;;16.35;9.23;;;19.40;99.90;;;;;;5088634;28;20028;-72
2023/09/14 09:01:48;;;;;;;14.10;8.70;;;19.60;99.90;;;;;;5086203;28;20436;-72
2023/09/14 09:04:14;;;;;;;14.57;8.52;;;19.70;99.90;;;;;;5087635;28;20404;-72
2023/09/14 09:06:41;;;;;;;14.40;8.05;;;19.80;99.90;;;;;;5089332;28;20032;-73
2023/09/14 09:09:09;;;;;;;15.82;9.00;;;19.90;99.90;;;;;;5088920;28;20035;-72
2023/09/14 09:11:37;;;;;;;15.23;8.77;;;19.90;99.90;;;;;;5089067;28;20537;-73
2023/09/14 09:14:02;;;;;;;13.88;8.32;;;19.90;99.90;;;;;;5087795;28;20056;-73
2023/09/14 09:16:28;;;;;;;13.45;7.72;;;19.80;99.90;;;;;;5088020;28;20060;-72
2023/09/14 09:19:05;;;;;;;16.60;8.65;;;19.80;99.90;;;;;;5089173;28;20036;-73
2023/09/14 09:21:34;;;;;;;15.65;8.65;;;19.80;99.90;;;;;;5088597;28;20461;-73
2023/09/14 09:24:04;;;;;;;15.80;9.48;;;19.60;99.90;;;;;;5087668;28;20515;-73
2023/09/14 09:26:37;;;;;;;14.35;8.10;;;19.60;99.90;;;;;;5088008;28;20036;-72
2023/09/14 09:29:17;;;;;;;13.77;8.43;;;19.60;99.90;;;;;;5087955;28;20064;-73
2023/09/14 09:31:45;;;;;;;16.13;8.85;;;19.80;99.90;;;;;;5085587;28;20024;-72
2023/09/14 09:34:12;;;;;;;13.50;8.02;;;20.00;99.90;;;;;;5085064;28;20056;-72
2023/09/14 09:36:38;;;;;;;12.95;8.00;;;20.10;99.90;;;;;;5088753;28;20039;-72
2023/09/14 09:39:05;;;;;;;13.50;8.90;;;20.30;99.90;;;;;;5087744;28;20035;-72
2023/09/14 09:41:40;;;;;;;17.50;9.05;;;20.60;99.90;;;;;;5085691;28;20066;-72
2023/09/14 09:44:06;;;;;;;13.77;8.07;;;20.80;99.90;;;;;;5088633;28;20345;-72
2023/09/14 09:46:36;;;;;;;14.60;8.13;;;21.10;99.90;;;;;;5087899;28;20054;-72
2023/09/14 09:49:03;;;;;;;13.60;7.77;;;21.30;99.90;;;;;;5086467;28;20082;-73
2023/09/14 09:51:32;;;;;;;12.43;7.15;;;21.40;99.90;;;;;;5070362;28;20016;-72
2023/09/14 09:54:02;;;;;;;13.25;7.78;;;20.90;99.90;;;;;;5088151;28;20484;-71
2023/09/14 09:56:28;;;;;;;12.95;6.43;;;20.80;99.90;;;;;;5087548;28;20170;-72
2023/09/14 09:58:54;;;;;;;13.13;6.65;;;20.90;99.90;;;;;;5088014;28;20518;-73
2023/09/14 10:01:23;;;;;;;9.48;5.45;;;21.10;99.90;;;;;;5091567;28;20111;-73
2023/09/14 10:03:48;;;;;;;9.35;5.47;;;21.40;99.90;;;;;;5090894;28;20020;-72
2023/09/14 10:06:14;;;;;;;10.50;6.18;;;21.50;99.90;;;;;;5091921;28;20566;-72
2023/09/14 10:08:40;;;;;;;12.45;6.30;;;21.50;99.90;;;;;;5091616;28;20118;-70
2023/09/14 10:11:06;;;;;;;12.55;7.15;;;21.30;99.90;;;;;;5092593;28;20103;-71
2023/09/14 10:13:32;;;;;;;13.45;7.40;;;21.20;99.90;;;;;;5092019;28;20028;-71
2023/09/14 10:16:00;;;;;;;11.65;6.90;;;20.80;99.90;;;;;;5091427;28;20054;-72
2023/09/14 10:18:28;;;;;;;11.35;6.20;;;20.80;99.90;;;;;;5091715;28;20432;-71
2023/09/14 10:20:56;;;;;;;11.82;6.30;;;20.70;99.90;;;;;;5091649;28;20370;-71
2023/09/14 10:23:22;;;;;;;9.23;5.05;;;20.60;99.90;;;;;;5091516;28;20024;-71
2023/09/14 10:25:50;;;;;;;10.57;5.70;;;20.70;99.90;;;;;;5092318;28;20063;-71
2023/09/14 10:28:19;;;;;;;8.35;5.22;;;21.20;99.90;;;;;;5090317;28;20646;-71
2023/09/14 10:30:46;;;;;;;9.30;5.25;;;21.40;99.90;;;;;;5091390;28;20039;-71
2023/09/14 10:33:13;;;;;;;8.15;5.78;;;21.60;99.90;;;;;;5091854;28;20434;-71
2023/09/14 10:35:40;;;;;;;11.10;5.43;;;21.80;99.90;;;;;;5092180;28;20028;-70
2023/09/14 10:38:06;;;;;;;8.18;5.22;;;22.10;99.90;;;;;;5091274;28;20048;-71
2023/09/14 10:40:36;;;;;;;8.27;5.88;;;22.10;99.90;;;;;;5090235;28;20695;-71
2023/09/14 10:43:03;;;;;;;8.57;6.15;;;22.10;99.90;;;;;;5091842;28;20028;-71
2023/09/14 10:45:39;;;;;;;8.38;5.03;;;22.10;99.90;;;;;;5089224;28;20031;-72
2023/09/14 10:48:09;;;;;;;9.48;5.30;;;22.00;99.90;;;;;;5085148;28;20052;-72
2023/09/14 10:50:35;;;;;;;8.43;5.43;;;21.70;99.90;;;;;;5089537;28;20035;-72
2023/09/14 10:53:02;;;;;;;8.35;5.50;;;21.40;99.90;;;;;;5091179;28;20115;-72
2023/09/14 10:55:27;;;;;;;8.32;4.85;;;21.50;99.90;;;;;;5090268;28;20036;-71
2023/09/14 10:57:53;;;;;;;13.63;5.53;;;21.90;99.90;;;;;;5091277;28;20028;-72
2023/09/14 11:00:38;;;;;;;9.18;5.40;;;22.40;99.90;;;;;;5090867;28;20032;-71
2023/09/14 11:03:05;;;;;;;8.00;4.95;;;22.60;99.90;;;;;;5091676;28;20024;-71
2023/09/14 11:05:48;;;;;;;6.75;5.03;;;22.60;99.90;;;;;;5088770;28;20051;-71
2023/09/14 11:08:14;;;;;;;11.00;5.35;;;22.10;99.90;;;;;;5090720;28;20032;-72
2023/09/14 11:11:00;;;;;;;8.43;4.75;;;21.70;99.90;;;;;;5090365;28;20107;-71
2023/09/14 11:13:30;;;;;;;8.30;4.93;;;21.70;99.90;;;;;;5089903;28;20121;-71
2023/09/14 11:15:57;;;;;;;8.07;4.70;;;21.70;99.90;;;;;;5089905;28;20851;-71
2023/09/14 11:18:49;;;;;;;10.50;5.57;;;21.50;99.90;;;;;;5090212;28;20051;-72
2023/09/14 11:21:32;;;;;;;8.75;4.70;;;21.20;99.90;;;;;;5090857;28;20535;-72
2023/09/14 11:23:59;;;;;;;9.30;4.32;;;21.10;99.90;;;;;;5091323;28;20055;-71
2023/09/14 11:26:38;;;;;;;7.90;4.57;;;21.60;99.90;;;;;;5089279;28;20040;-71
2023/09/14 11:29:05;;;;;;;8.07;4.28;;;22.30;99.90;;;;;;5089951;28;20424;-71
2023/09/14 11:31:32;;;;;;;7.53;4.70;;;22.80;99.90;;;;;;5090266;28;20028;-73
2023/09/14 11:34:03;;;;;;;6.03;3.97;;;23.40;99.90;;;;;;5089553;28;20028;-71
2023/09/14 11:36:28;;;;;;;5.90;3.90;;;23.80;99.90;;;;;;5089764;28;20387;-72
2023/09/14 11:38:54;;;;;;;8.32;4.07;;;23.40;99.90;;;;;;5089762;28;20047;-71
2023/09/14 11:41:48;;;;;;;6.40;3.95;;;23.30;99.90;;;;;;5089542;28;20036;-72
2023/09/14 11:44:15;;;;;;;8.82;3.95;;;22.90;99.90;;;;;;5090534;28;20024;-71
2023/09/14 11:46:43;;;;;;;11.85;4.25;;;22.40;99.90;;;;;;5088906;28;20027;-71
2023/09/14 11:49:10;;;;;;;7.78;3.85;;;22.20;99.90;;;;;;5090754;28;20131;-71
2023/09/14 11:51:36;;;;;;;6.10;4.25;;;22.00;99.90;;;;;;5088607;28;20095;-71
2023/09/14 11:54:07;;;;;;;6.45;4.35;;;22.00;99.90;;;;;;5090439;28;20556;-71
2023/09/14 11:56:33;;;;;;;6.72;4.28;;;22.10;99.90;;;;;;5089603;28;20031;-71
2023/09/14 11:59:00;;;;;;;6.32;4.10;;;22.40;99.90;;;;;;5090325;28;20157;-71
2023/09/14 12:01:34;;;;;;;6.93;4.30;;;22.70;99.90;;;;;;5088173;28;20039;-72
2023/09/14 12:04:03;;;;;;;6.15;4.03;;;22.90;99.90;;;;;;5089409;28;20227;-72
2023/09/14 12:06:29;;;;;;;8.13;4.30;;;23.20;99.90;;;;;;5088012;28;20059;-72
2023/09/14 12:08:55;;;;;;;6.13;4.03;;;23.40;99.90;;;;;;5090424;28;20077;-72
2023/09/14 12:11:22;;;;;;;5.97;3.92;;;23.60;99.90;;;;;;5088150;28;20373;-72
2023/09/14 12:13:55;;;;;;;7.55;3.78;;;23.70;99.90;;;;;;5090092;28;20067;-71
2023/09/14 12:16:22;;;;;;;5.72;4.03;;;24.00;99.90;;;;;;5088047;28;20031;-71
2023/09/14 12:18:48;;;;;;;8.38;4.15;;;23.90;99.90;;;;;;5090193;28;20036;-71
2023/09/14 12:21:15;;;;;;;6.22;3.83;;;23.50;99.90;;;;;;5089270;28;20024;-70
2023/09/14 12:23:43;;;;;;;6.90;3.83;;;23.00;99.90;;;;;;5089608;28;20051;-71
2023/09/14 12:26:12;;;;;;;5.38;3.92;;;22.40;99.90;;;;;;5089886;28;20039;-71
2023/09/14 12:28:39;;;;;;;6.75;4.00;;;22.20;99.90;;;;;;5089074;28;20016;-71
2023/09/14 12:31:05;;;;;;;11.32;4.38;;;22.10;99.90;;;;;;5085186;28;20032;-71
2023/09/14 12:33:31;;;;;;;10.27;3.55;;;22.60;99.90;;;;;;5082297;28;20185;-72